Time;durP1;ratioP1;P1;durP2;ratioP2;P2;SDS_P1;SDS_P2;PMS_P1;PMS_P2;Temp;Humidity;BMP_temperature;BMP_pressure;BME280_temperature;BME280_humidity;BME280_pressure;Samples;Min_cycle;Max_cycle;Signal;HPM_P1;HPM_P2
2021/01/12 00:01:13;;;;;;;3.22;1.42;;;9.00;99.90;;;;;;5067082;28;20052;-60
2021/01/12 00:03:39;;;;;;;3.00;1.40;;;9.00;99.90;;;;;;5069472;28;20029;-60
2021/01/12 00:06:04;;;;;;;4.43;1.35;;;9.00;99.90;;;;;;5072606;28;20117;-60
2021/01/12 00:08:30;;;;;;;2.60;1.40;;;9.00;99.90;;;;;;5072471;28;20017;-59
2021/01/12 00:10:57;;;;;;;4.70;1.30;;;9.00;99.90;;;;;;5073134;28;20028;-59
2021/01/12 00:13:23;;;;;;;4.57;1.75;;;9.00;99.90;;;;;;5068504;28;20031;-60
2021/01/12 00:15:48;;;;;;;5.78;1.73;;;9.00;99.90;;;;;;5053442;28;20115;-60
2021/01/12 00:18:14;;;;;;;8.63;2.65;;;9.10;99.90;;;;;;5063033;28;20170;-59
2021/01/12 00:20:40;;;;;;;8.50;3.15;;;9.10;99.90;;;;;;5053416;28;20029;-60
2021/01/12 00:23:05;;;;;;;4.40;1.60;;;9.10;99.90;;;;;;5061063;28;20023;-60
2021/01/12 00:25:31;;;;;;;6.95;1.73;;;9.10;99.90;;;;;;5060071;28;20031;-59
2021/01/12 00:27:57;;;;;;;5.15;1.92;;;9.10;99.90;;;;;;5070247;28;20068;-60
2021/01/12 00:30:23;;;;;;;5.63;2.22;;;9.10;99.90;;;;;;5057305;28;20020;-59
2021/01/12 00:32:49;;;;;;;7.30;2.17;;;9.10;99.90;;;;;;5063654;28;20468;-59
2021/01/12 00:35:14;;;;;;;6.22;1.90;;;9.10;99.90;;;;;;5072962;28;20439;-60
2021/01/12 00:37:40;;;;;;;7.93;2.65;;;9.00;99.90;;;;;;5060207;28;20100;-60
2021/01/12 00:40:06;;;;;;;6.63;2.40;;;9.10;99.90;;;;;;5053070;28;20040;-60
2021/01/12 00:42:32;;;;;;;5.03;2.00;;;9.20;99.90;;;;;;5061110;28;20136;-60
2021/01/12 00:44:58;;;;;;;9.65;2.20;;;9.20;99.90;;;;;;5052854;28;20762;-60
2021/01/12 00:47:25;;;;;;;7.43;1.92;;;9.20;99.90;;;;;;5060648;28;20028;-58
2021/01/12 00:49:51;;;;;;;5.47;2.22;;;9.20;99.90;;;;;;5052781;28;20028;-60
2021/01/12 00:52:17;;;;;;;8.88;2.58;;;9.20;99.90;;;;;;5058246;28;20459;-59
2021/01/12 00:54:42;;;;;;;5.47;2.10;;;9.20;99.90;;;;;;5052455;28;20028;-59
2021/01/12 00:57:08;;;;;;;6.22;2.15;;;9.20;99.90;;;;;;5062168;28;20100;-61
2021/01/12 00:59:34;;;;;;;5.95;2.45;;;9.20;99.90;;;;;;5051965;28;20029;-60
2021/01/12 01:02:04;;;;;;;8.05;2.70;;;9.20;99.90;;;;;;5067595;28;20104;-59
2021/01/12 01:04:30;;;;;;;11.63;4.88;;;9.20;99.90;;;;;;5067992;28;20402;-59
2021/01/12 01:06:56;;;;;;;8.30;3.33;;;9.20;99.90;;;;;;5067342;28;20030;-59
2021/01/12 01:09:22;;;;;;;9.00;2.53;;;9.20;99.90;;;;;;5052986;28;20467;-60
2021/01/12 01:11:48;;;;;;;8.55;3.38;;;9.30;99.90;;;;;;5054664;28;20087;-60
2021/01/12 01:14:15;;;;;;;8.13;3.45;;;9.30;99.90;;;;;;5056398;28;20028;-60
2021/01/12 01:16:42;;;;;;;5.57;2.30;;;9.30;99.90;;;;;;5052185;28;20441;-61
2021/01/12 01:19:08;;;;;;;4.78;1.65;;;9.30;99.90;;;;;;5070708;28;20056;-59
2021/01/12 01:21:34;;;;;;;5.72;1.83;;;9.30;99.90;;;;;;5071919;28;20020;-59
2021/01/12 01:24:01;;;;;;;4.80;1.90;;;9.30;99.90;;;;;;5069938;28;20440;-60
2021/01/12 01:26:27;;;;;;;4.72;1.70;;;9.30;99.90;;;;;;5057516;28;20028;-59
2021/01/12 01:28:52;;;;;;;5.45;1.98;;;9.30;99.90;;;;;;5056063;28;20438;-59
2021/01/12 01:31:18;;;;;;;5.35;1.50;;;9.30;99.90;;;;;;5069445;28;20111;-60
2021/01/12 01:33:46;;;;;;;8.43;2.75;;;9.30;99.90;;;;;;5055961;28;20086;-59
2021/01/12 01:36:13;;;;;;;3.40;1.45;;;9.30;99.90;;;;;;5057942;28;20039;-59
2021/01/12 01:38:39;;;;;;;10.85;3.38;;;9.40;99.90;;;;;;5057090;28;20021;-60
2021/01/12 01:41:07;;;;;;;5.88;2.00;;;9.30;99.90;;;;;;5067227;28;20072;-59
2021/01/12 01:43:33;;;;;;;7.57;2.17;;;9.30;99.90;;;;;;5064219;28;20113;-60
2021/01/12 01:46:00;;;;;;;4.72;2.20;;;9.40;99.90;;;;;;5069161;28;20020;-59
2021/01/12 01:48:26;;;;;;;7.35;2.20;;;9.40;99.90;;;;;;5055706;28;20029;-59
2021/01/12 01:50:51;;;;;;;7.53;1.98;;;9.40;99.90;;;;;;5052052;28;20103;-61
2021/01/12 01:53:18;;;;;;;8.45;2.20;;;9.40;99.90;;;;;;5068955;28;20020;-61
2021/01/12 01:55:48;;;;;;;5.82;2.42;;;9.40;99.90;;;;;;5065769;28;20032;-60
2021/01/12 01:58:14;;;;;;;6.68;2.33;;;9.40;99.90;;;;;;5052357;28;20054;-60
2021/01/12 02:00:39;;;;;;;11.57;2.85;;;9.40;99.90;;;;;;5051622;28;20029;-60
2021/01/12 02:03:21;;;;;;;8.30;2.60;;;9.40;99.90;;;;;;5066559;28;20029;-60
2021/01/12 02:05:56;;;;;;;7.32;2.15;;;9.40;99.90;;;;;;5065053;28;20032;-59
2021/01/12 02:08:36;;;;;;;8.02;2.33;;;9.40;99.90;;;;;;5071986;28;20116;-60
2021/01/12 02:11:02;;;;;;;12.63;3.13;;;9.40;99.90;;;;;;5057067;28;20494;-59
2021/01/12 02:13:31;;;;;;;9.35;2.70;;;9.40;99.90;;;;;;5058515;28;20485;-59
2021/01/12 02:16:00;;;;;;;7.30;2.33;;;9.40;99.90;;;;;;5059795;28;20028;-60
2021/01/12 02:18:32;;;;;;;13.55;3.50;;;9.40;99.90;;;;;;5055188;28;20021;-59
2021/01/12 02:21:01;;;;;;;11.45;3.75;;;9.40;99.90;;;;;;5060377;28;20074;-60
2021/01/12 02:23:36;;;;;;;8.25;2.78;;;9.40;99.90;;;;;;5064137;28;20021;-60
2021/01/12 02:26:02;;;;;;;;;;;9.40;99.90;;;;;;5061811;28;20078;-59
2021/01/12 02:28:28;;;;;;;14.15;2.75;;;9.30;99.90;;;;;;5065124;28;19987;-60
2021/01/12 02:30:54;;;;;;;9.30;2.65;;;9.40;99.90;;;;;;5058382;28;20024;-60
2021/01/12 02:33:19;;;;;;;10.63;2.80;;;9.40;99.90;;;;;;5056820;28;20016;-60
2021/01/12 02:35:48;;;;;;;9.45;2.88;;;9.40;99.90;;;;;;5065402;28;20163;-60
2021/01/12 02:38:14;;;;;;;7.28;2.60;;;9.30;99.90;;;;;;5054065;28;20032;-59
2021/01/12 02:40:40;;;;;;;11.35;3.35;;;9.30;99.90;;;;;;5066608;28;20029;-59
2021/01/12 02:43:06;;;;;;;11.88;3.22;;;9.30;99.90;;;;;;5064608;28;20029;-60
2021/01/12 02:45:32;;;;;;;7.50;2.45;;;9.30;99.90;;;;;;5067498;28;20039;-61
2021/01/12 02:47:58;;;;;;;9.57;2.40;;;9.30;99.90;;;;;;5057731;28;20104;-60
2021/01/12 02:50:24;;;;;;;8.05;2.55;;;9.40;99.90;;;;;;5058869;28;20482;-60
2021/01/12 02:52:50;;;;;;;6.55;1.73;;;9.30;99.90;;;;;;5069822;28;20373;-59
2021/01/12 02:55:16;;;;;;;6.20;1.80;;;9.40;99.90;;;;;;5049974;28;20125;-59
2021/01/12 02:57:42;;;;;;;5.75;1.80;;;9.40;99.90;;;;;;5058380;28;20428;-60
2021/01/12 03:00:10;;;;;;;6.22;1.80;;;9.40;99.90;;;;;;5053294;28;20036;-59
2021/01/12 03:02:36;;;;;;;5.28;1.50;;;9.40;99.90;;;;;;5059309;28;20025;-59
2021/01/12 03:05:07;;;;;;;6.07;1.60;;;9.40;99.90;;;;;;5052024;28;20032;-60
2021/01/12 03:07:33;;;;;;;7.28;1.42;;;9.40;99.90;;;;;;5063687;28;20029;-60
2021/01/12 03:09:59;;;;;;;6.35;1.60;;;9.40;99.90;;;;;;5071565;28;20024;-59
2021/01/12 03:12:25;;;;;;;4.97;1.50;;;9.40;99.90;;;;;;5057264;28;20041;-60
2021/01/12 03:14:51;;;;;;;5.72;1.60;;;9.50;99.90;;;;;;5057312;28;20033;-60
2021/01/12 03:17:18;;;;;;;5.28;1.48;;;9.50;99.90;;;;;;5057179;28;20382;-59
2021/01/12 03:19:44;;;;;;;5.32;1.45;;;9.50;99.90;;;;;;5059083;28;20103;-59
2021/01/12 03:22:10;;;;;;;9.68;2.28;;;9.50;99.90;;;;;;5065721;28;20111;-60
2021/01/12 03:24:36;;;;;;;7.18;1.25;;;9.40;99.90;;;;;;5074601;28;20029;-60
2021/01/12 03:27:03;;;;;;;5.10;1.50;;;9.50;99.90;;;;;;5073412;28;20707;-60
2021/01/12 03:29:29;;;;;;;6.65;1.70;;;9.50;99.90;;;;;;5073358;28;20032;-58
2021/01/12 03:31:55;;;;;;;5.57;1.40;;;9.50;99.90;;;;;;5067779;28;20047;-60
2021/01/12 03:34:21;;;;;;;4.75;1.60;;;9.50;99.90;;;;;;5054731;28;20033;-60
2021/01/12 03:36:47;;;;;;;5.00;2.05;;;9.50;99.90;;;;;;5060769;28;20025;-60
2021/01/12 03:39:13;;;;;;;5.50;1.50;;;9.50;99.90;;;;;;5074793;28;20031;-60
2021/01/12 03:41:39;;;;;;;6.70;1.38;;;9.50;99.90;;;;;;5071287;28;20127;-58
2021/01/12 03:44:04;;;;;;;3.75;1.08;;;9.50;99.90;;;;;;5073822;28;20041;-60
2021/01/12 03:46:30;;;;;;;3.95;1.10;;;9.50;99.90;;;;;;5060530;28;20070;-60
2021/01/12 03:48:56;;;;;;;3.63;1.20;;;9.50;99.90;;;;;;5066677;28;20413;-60
2021/01/12 03:51:24;;;;;;;9.25;1.45;;;9.50;99.90;;;;;;5060738;28;20036;-60
2021/01/12 03:53:51;;;;;;;4.85;1.20;;;9.50;99.90;;;;;;5067890;28;20017;-59
2021/01/12 03:56:17;;;;;;;6.22;1.30;;;9.60;99.90;;;;;;5055305;28;20052;-60
2021/01/12 03:58:43;;;;;;;2.20;1.15;;;9.60;99.90;;;;;;5069810;28;20133;-60
2021/01/12 04:01:09;;;;;;;4.70;1.27;;;9.60;99.90;;;;;;5054025;28;20056;-59
2021/01/12 04:03:35;;;;;;;3.22;1.42;;;9.60;99.90;;;;;;5065206;28;20025;-59
2021/01/12 04:06:03;;;;;;;4.07;1.20;;;9.60;99.90;;;;;;5058996;28;20033;-59
2021/01/12 04:08:29;;;;;;;2.38;1.00;;;9.60;99.90;;;;;;5054810;28;20044;-60
2021/01/12 04:10:55;;;;;;;3.35;1.40;;;9.60;99.90;;;;;;5053738;28;20033;-60
2021/01/12 04:13:21;;;;;;;3.60;1.08;;;9.60;99.90;;;;;;5072548;28;20103;-59
2021/01/12 04:15:47;;;;;;;2.88;1.00;;;9.60;99.90;;;;;;5073346;28;20116;-59
2021/01/12 04:18:13;;;;;;;1.90;0.88;;;9.60;99.90;;;;;;5055159;28;20103;-60
2021/01/12 04:20:39;;;;;;;5.38;1.00;;;9.60;99.90;;;;;;5071881;28;20107;-60
2021/01/12 04:23:04;;;;;;;2.30;1.00;;;9.60;99.90;;;;;;5055274;28;20033;-60
2021/01/12 04:25:30;;;;;;;3.03;1.20;;;9.60;99.90;;;;;;5071636;28;20024;-59
2021/01/12 04:27:56;;;;;;;2.15;0.88;;;9.60;99.90;;;;;;5056794;28;20102;-60
2021/01/12 04:30:22;;;;;;;2.28;0.80;;;9.60;99.90;;;;;;5054437;28;20025;-60
2021/01/12 04:32:48;;;;;;;3.00;1.00;;;9.60;99.90;;;;;;5067404;28;20020;-60
2021/01/12 04:35:13;;;;;;;3.88;1.30;;;9.60;99.90;;;;;;5071881;28;20022;-60
2021/01/12 04:37:39;;;;;;;2.90;1.13;;;9.60;99.90;;;;;;5057876;28;20462;-59
2021/01/12 04:40:06;;;;;;;5.60;1.35;;;9.60;99.90;;;;;;5066365;28;20466;-60
2021/01/12 04:42:32;;;;;;;3.83;1.27;;;9.60;99.90;;;;;;5072011;28;20055;-60
2021/01/12 04:45:03;;;;;;;3.53;1.23;;;9.50;99.90;;;;;;5071974;28;20025;-60
2021/01/12 04:47:29;;;;;;;1.63;0.70;;;9.30;99.90;;;;;;5060856;28;20069;-60
2021/01/12 04:49:55;;;;;;;1.02;0.70;;;9.20;99.90;;;;;;5054516;28;20033;-59
2021/01/12 04:52:21;;;;;;;2.65;0.77;;;9.10;99.90;;;;;;5059859;28;20095;-61
2021/01/12 04:54:52;;;;;;;1.33;0.50;;;9.10;99.90;;;;;;5065101;28;20111;-60
2021/01/12 04:57:18;;;;;;;1.75;0.45;;;9.00;99.90;;;;;;5062349;28;20024;-60
2021/01/12 04:59:44;;;;;;;2.80;0.50;;;9.00;99.90;;;;;;5054757;28;20109;-60
2021/01/12 05:02:13;;;;;;;2.55;1.25;;;8.90;99.90;;;;;;5053007;28;20032;-59
2021/01/12 05:04:42;;;;;;;4.53;1.50;;;8.90;99.90;;;;;;5055124;28;20465;-59
2021/01/12 05:07:09;;;;;;;4.60;1.10;;;8.90;99.90;;;;;;5062591;28;20025;-59
2021/01/12 05:09:38;;;;;;;1.98;0.80;;;8.80;99.90;;;;;;5072561;28;20025;-59
2021/01/12 05:12:05;;;;;;;0.75;0.68;;;8.80;99.90;;;;;;5070094;28;20190;-60
2021/01/12 05:14:33;;;;;;;1.05;0.50;;;8.80;99.90;;;;;;5063683;28;20067;-59
2021/01/12 05:16:59;;;;;;;1.02;0.40;;;8.80;99.90;;;;;;5052609;28;20527;-59
2021/01/12 05:19:28;;;;;;;1.30;0.40;;;8.80;99.90;;;;;;5060403;28;20062;-59
2021/01/12 05:21:59;;;;;;;2.88;0.70;;;8.80;99.90;;;;;;5071172;28;20017;-60
2021/01/12 05:24:26;;;;;;;2.05;0.52;;;8.80;99.90;;;;;;5065167;28;20057;-59
2021/01/12 05:27:02;;;;;;;1.67;0.55;;;8.70;99.90;;;;;;5057938;28;20035;-59
2021/01/12 05:29:32;;;;;;;2.10;0.60;;;8.70;99.90;;;;;;5065603;28;20535;-59
2021/01/12 05:32:01;;;;;;;0.65;0.30;;;8.80;99.90;;;;;;5067984;28;20032;-60
2021/01/12 05:34:28;;;;;;;2.38;0.40;;;8.80;99.90;;;;;;5069888;28;20760;-58
2021/01/12 05:37:00;;;;;;;1.08;0.50;;;8.70;99.90;;;;;;5053096;28;20029;-58
2021/01/12 05:39:26;;;;;;;2.58;0.40;;;8.80;99.90;;;;;;5072592;28;20020;-60
2021/01/12 05:41:57;;;;;;;0.95;0.57;;;8.80;99.90;;;;;;5070723;28;20347;-60
2021/01/12 05:44:24;;;;;;;3.20;0.63;;;8.80;99.90;;;;;;5052586;28;20033;-60
2021/01/12 05:46:51;;;;;;;0.65;0.60;;;8.70;99.90;;;;;;5064311;28;20047;-60
2021/01/12 05:49:18;;;;;;;2.88;0.60;;;8.70;99.90;;;;;;5063520;28;20032;-59
2021/01/12 05:51:49;;;;;;;0.77;0.60;;;8.70;99.90;;;;;;5057848;28;20111;-60
2021/01/12 05:54:27;;;;;;;4.80;0.45;;;8.70;99.90;;;;;;5062229;28;20024;-60
2021/01/12 05:57:01;;;;;;;3.28;0.88;;;8.70;99.90;;;;;;5064558;28;20485;-59
2021/01/12 05:59:31;;;;;;;1.38;0.60;;;8.70;99.90;;;;;;5054832;28;20363;-60
2021/01/12 06:01:59;;;;;;;0.55;0.40;;;8.70;99.90;;;;;;5056146;28;20036;-60
2021/01/12 06:04:25;;;;;;;0.68;0.60;;;8.70;99.90;;;;;;5059304;28;20350;-59
2021/01/12 06:06:55;;;;;;;0.65;0.60;;;8.70;99.90;;;;;;5063987;28;20021;-60
2021/01/12 06:09:23;;;;;;;2.17;0.80;;;8.70;99.90;;;;;;5057027;28;20539;-59
2021/01/12 06:11:53;;;;;;;0.38;0.38;;;8.70;99.90;;;;;;5051560;28;20044;-60
2021/01/12 06:14:26;;;;;;;1.95;0.50;;;8.60;99.90;;;;;;5056774;28;20474;-61
2021/01/12 06:16:53;;;;;;;3.25;0.57;;;8.60;99.90;;;;;;5068981;28;20377;-60
2021/01/12 06:19:26;;;;;;;0.80;0.50;;;8.60;99.90;;;;;;5070202;28;20016;-60
2021/01/12 06:21:55;;;;;;;3.03;0.75;;;8.60;99.90;;;;;;5068745;28;20032;-59
2021/01/12 06:24:35;;;;;;;2.30;0.70;;;8.60;99.90;;;;;;5067198;28;20370;-61
2021/01/12 06:27:11;;;;;;;2.47;0.60;;;8.60;99.90;;;;;;5051417;28;20081;-60
2021/01/12 06:29:39;;;;;;;2.65;0.60;;;8.50;99.90;;;;;;5051980;28;20029;-60
2021/01/12 06:32:05;;;;;;;2.70;0.88;;;8.50;99.90;;;;;;5058879;28;20033;-62
2021/01/12 06:34:32;;;;;;;2.70;0.80;;;8.50;99.90;;;;;;5059929;28;20032;-60
2021/01/12 06:36:59;;;;;;;3.00;0.80;;;8.50;99.90;;;;;;5058165;28;20154;-59
2021/01/12 06:39:43;;;;;;;5.18;1.10;;;8.50;99.90;;;;;;5060184;28;20387;-60
2021/01/12 06:42:12;;;;;;;5.68;1.15;;;8.50;99.90;;;;;;5057898;28;20108;-59
2021/01/12 06:44:39;;;;;;;8.27;1.10;;;8.50;99.90;;;;;;5054454;28;20081;-59
2021/01/12 06:47:06;;;;;;;2.33;0.75;;;8.40;99.90;;;;;;5060760;28;20025;-59
2021/01/12 06:49:33;;;;;;;1.65;0.90;;;8.40;99.90;;;;;;5052008;28;20478;-59
2021/01/12 06:52:02;;;;;;;7.15;0.70;;;8.40;99.90;;;;;;5055503;28;20028;-60
2021/01/12 06:54:48;;;;;;;6.57;1.35;;;8.30;99.90;;;;;;5071111;28;20029;-59
2021/01/12 06:57:16;;;;;;;12.40;1.40;;;8.30;99.90;;;;;;5072191;28;20025;-60
2021/01/12 06:59:46;;;;;;;11.18;1.55;;;8.40;99.90;;;;;;5074762;28;20027;-59
2021/01/12 07:02:29;;;;;;;4.28;0.95;;;8.40;99.90;;;;;;5067114;28;20021;-58
2021/01/12 07:04:59;;;;;;;1.55;0.77;;;8.40;99.90;;;;;;5070516;28;20032;-59
2021/01/12 07:07:28;;;;;;;2.78;0.82;;;8.30;99.90;;;;;;5073335;28;20051;-60
2021/01/12 07:09:59;;;;;;;2.10;0.80;;;8.30;99.90;;;;;;5075629;28;20107;-59
2021/01/12 07:12:27;;;;;;;4.78;0.93;;;8.40;99.90;;;;;;5065958;28;20041;-59
2021/01/12 07:14:58;;;;;;;2.90;0.95;;;8.30;99.90;;;;;;5060913;28;20036;-60
2021/01/12 07:17:32;;;;;;;2.63;1.00;;;8.30;99.90;;;;;;5067269;28;20040;-60
2021/01/12 07:20:13;;;;;;;5.50;1.50;;;8.20;99.90;;;;;;5067958;28;20024;-60
2021/01/12 07:22:51;;;;;;;3.88;1.35;;;8.30;99.90;;;;;;5066528;28;20025;-59
2021/01/12 07:25:20;;;;;;;0.80;0.77;;;8.30;99.90;;;;;;5056199;28;20029;-58
2021/01/12 07:28:25;;;;;;;3.17;0.88;;;8.20;99.90;;;;;;5065388;28;20024;-60
2021/01/12 07:30:52;;;;;;;2.97;0.93;;;8.00;99.90;;;;;;5061444;28;20510;-60
2021/01/12 07:33:23;;;;;;;6.25;1.35;;;7.60;99.90;;;;;;5061203;28;20516;-59
2021/01/12 07:35:53;;;;;;;3.00;0.80;;;7.30;99.90;;;;;;5056268;28;20029;-60
2021/01/12 07:38:23;;;;;;;4.75;0.70;;;7.10;99.90;;;;;;5062195;28;20382;-59
2021/01/12 07:40:50;;;;;;;5.88;1.33;;;7.10;99.90;;;;;;5067214;28;20366;-59
2021/01/12 07:43:18;;;;;;;9.68;1.30;;;6.90;99.90;;;;;;5059767;28;20101;-60
2021/01/12 07:45:46;;;;;;;6.07;1.40;;;6.90;99.90;;;;;;5059779;28;20409;-60
2021/01/12 07:48:13;;;;;;;4.35;1.02;;;6.80;99.90;;;;;;5063249;28;20036;-60
2021/01/12 07:50:42;;;;;;;6.70;1.40;;;6.90;99.90;;;;;;5065565;28;20201;-60
2021/01/12 07:53:09;;;;;;;18.02;2.30;;;6.90;99.90;;;;;;5069901;28;20017;-60
2021/01/12 07:55:39;;;;;;;8.35;1.75;;;7.00;99.90;;;;;;5066391;28;20036;-60
2021/01/12 07:58:05;;;;;;;5.75;1.30;;;6.90;99.90;;;;;;5065555;28;20024;-58
2021/01/12 08:00:32;;;;;;;11.25;1.30;;;6.90;99.90;;;;;;5061999;28;20463;-60
2021/01/12 08:02:58;;;;;;;8.18;1.58;;;6.90;99.90;;;;;;5069535;28;20040;-60
2021/01/12 08:05:25;;;;;;;6.75;1.60;;;6.90;99.90;;;;;;5069059;28;20028;-60
2021/01/12 08:08:11;;;;;;;7.07;2.20;;;6.80;99.90;;;;;;5062798;28;20127;-60
2021/01/12 08:10:40;;;;;;;8.10;1.67;;;6.80;99.90;;;;;;5065850;28;20118;-59
2021/01/12 08:13:11;;;;;;;7.45;1.60;;;6.80;99.90;;;;;;5066745;28;20123;-59
2021/01/12 08:15:37;;;;;;;13.02;4.32;;;6.70;99.90;;;;;;5063619;28;20024;-59
2021/01/12 08:18:11;;;;;;;13.57;1.73;;;6.70;99.90;;;;;;5058394;28;20720;-60
2021/01/12 08:20:38;;;;;;;9.48;1.67;;;6.70;99.90;;;;;;5061237;28;20355;-59
2021/01/12 08:23:04;;;;;;;3.45;1.30;;;6.70;99.90;;;;;;5055010;28;20569;-59
2021/01/12 08:25:33;;;;;;;5.45;1.30;;;6.70;99.90;;;;;;5060412;28;20103;-59
2021/01/12 08:28:00;;;;;;;8.20;1.35;;;6.70;99.90;;;;;;5057708;28;20427;-59
2021/01/12 08:30:29;;;;;;;3.60;1.15;;;6.60;99.90;;;;;;5057887;28;20025;-59
2021/01/12 08:33:01;;;;;;;9.73;1.73;;;6.60;99.90;;;;;;5069181;28;20043;-59
2021/01/12 08:35:29;;;;;;;4.80;1.15;;;6.60;99.90;;;;;;5066301;28;20033;-59
2021/01/12 08:37:59;;;;;;;5.95;1.45;;;6.50;99.90;;;;;;5053543;28;20440;-60
2021/01/12 08:40:29;;;;;;;6.22;1.27;;;6.50;99.90;;;;;;5053526;28;20479;-60
2021/01/12 08:42:55;;;;;;;5.38;1.60;;;6.40;99.90;;;;;;5052339;28;20110;-59
2021/01/12 08:45:21;;;;;;;6.32;1.40;;;6.50;99.90;;;;;;5053209;28;20048;-59
2021/01/12 08:47:47;;;;;;;6.85;1.70;;;6.50;99.90;;;;;;5055392;28;20117;-60
2021/01/12 08:50:13;;;;;;;4.07;1.17;;;6.40;99.90;;;;;;5063389;28;20112;-60
2021/01/12 08:52:44;;;;;;;4.05;1.33;;;6.50;99.90;;;;;;5063032;28;20070;-60
2021/01/12 08:55:21;;;;;;;4.05;1.52;;;6.40;99.90;;;;;;5056743;28;20058;-60
2021/01/12 08:57:58;;;;;;;4.60;1.30;;;6.40;99.90;;;;;;5060979;28;20029;-58
2021/01/12 09:00:28;;;;;;;6.88;1.65;;;6.40;99.90;;;;;;5056363;28;20060;-60
2021/01/12 09:02:55;;;;;;;5.30;1.20;;;6.30;99.90;;;;;;5052329;28;20344;-59
2021/01/12 09:05:21;;;;;;;5.82;1.17;;;6.30;99.90;;;;;;5057037;28;20116;-58
2021/01/12 09:07:57;;;;;;;8.73;1.42;;;6.30;99.90;;;;;;5059531;28;20116;-59
2021/01/12 09:10:27;;;;;;;5.68;1.05;;;6.30;99.90;;;;;;5057458;28;20130;-60
2021/01/12 09:12:54;;;;;;;5.05;1.35;;;6.30;99.90;;;;;;5060698;28;20071;-59
2021/01/12 09:15:25;;;;;;;5.00;1.42;;;6.30;99.90;;;;;;5057756;28;20067;-59
2021/01/12 09:18:06;;;;;;;4.65;1.25;;;6.30;99.90;;;;;;5054579;28;20036;-59
2021/01/12 09:20:40;;;;;;;6.65;1.20;;;6.30;99.90;;;;;;5058678;28;20043;-58
2021/01/12 09:23:11;;;;;;;2.78;0.82;;;6.30;99.90;;;;;;5058258;28;20107;-59
2021/01/12 09:25:39;;;;;;;7.38;1.10;;;6.20;99.90;;;;;;5061703;28;20119;-59
2021/01/12 09:28:14;;;;;;;9.15;1.65;;;6.20;99.90;;;;;;5065168;28;20040;-60
2021/01/12 09:30:40;;;;;;;7.63;1.73;;;6.20;99.90;;;;;;5060009;28;20486;-61
2021/01/12 09:33:06;;;;;;;4.05;1.20;;;6.20;99.90;;;;;;5056240;28;20310;-59
2021/01/12 09:35:32;;;;;;;9.50;1.65;;;6.20;99.90;;;;;;5056753;28;20049;-59
2021/01/12 09:38:02;;;;;;;5.43;1.17;;;6.20;99.90;;;;;;5065443;28;20544;-59
2021/01/12 09:40:29;;;;;;;6.35;1.60;;;6.30;99.90;;;;;;5054297;28;20027;-59
2021/01/12 09:42:55;;;;;;;10.85;1.50;;;6.30;99.90;;;;;;5051716;28;20435;-59
2021/01/12 09:45:21;;;;;;;7.47;1.50;;;6.30;99.90;;;;;;5057318;28;20044;-60
2021/01/12 09:47:47;;;;;;;6.72;1.30;;;6.10;99.90;;;;;;5064439;28;20028;-59
2021/01/12 09:50:13;;;;;;;8.45;1.90;;;6.10;99.90;;;;;;5067629;28;20463;-60
2021/01/12 09:52:39;;;;;;;12.65;1.73;;;6.10;99.90;;;;;;5069440;28;20028;-60
2021/01/12 09:55:05;;;;;;;8.48;1.63;;;6.10;99.90;;;;;;5059639;28;20028;-58
2021/01/12 09:57:36;;;;;;;13.95;1.77;;;6.20;99.90;;;;;;5055985;28;20459;-59
2021/01/12 10:00:04;;;;;;;7.43;1.58;;;6.20;99.90;;;;;;5055073;28;20055;-60
2021/01/12 10:02:32;;;;;;;10.52;1.73;;;6.20;99.90;;;;;;5056615;28;20035;-60
2021/01/12 10:04:58;;;;;;;10.93;1.77;;;6.20;99.90;;;;;;5061248;28;20044;-59
2021/01/12 10:07:24;;;;;;;7.75;1.70;;;6.10;99.90;;;;;;5061534;28;20087;-59
2021/01/12 10:09:49;;;;;;;7.22;1.75;;;6.20;99.90;;;;;;5057006;28;20788;-60
2021/01/12 10:12:15;;;;;;;14.38;2.45;;;6.20;99.90;;;;;;5059470;28;20094;-60
2021/01/12 10:14:41;;;;;;;9.80;2.25;;;6.20;99.90;;;;;;5065590;28;20025;-60
2021/01/12 10:17:08;;;;;;;9.15;2.97;;;6.30;99.90;;;;;;5066834;28;20112;-60
2021/01/12 10:19:35;;;;;;;11.35;3.08;;;6.30;99.90;;;;;;5064529;28;20092;-59
2021/01/12 10:22:01;;;;;;;8.05;2.88;;;6.30;99.90;;;;;;5052259;28;20025;-59
2021/01/12 10:24:27;;;;;;;10.68;3.45;;;6.30;99.90;;;;;;5064599;28;20045;-60
2021/01/12 10:26:54;;;;;;;11.38;3.17;;;6.30;99.90;;;;;;5071395;28;20071;-60
2021/01/12 10:29:22;;;;;;;14.88;3.92;;;6.30;99.90;;;;;;5059457;28;20504;-60
2021/01/12 10:31:49;;;;;;;10.80;2.80;;;6.40;99.90;;;;;;5063574;28;20096;-60
2021/01/12 10:34:16;;;;;;;10.93;2.83;;;6.40;99.90;;;;;;5068040;28;20028;-59
2021/01/12 10:36:42;;;;;;;15.35;2.90;;;6.30;99.90;;;;;;5069891;28;20104;-60
2021/01/12 10:39:08;;;;;;;10.38;2.72;;;6.30;99.90;;;;;;5056636;28;20143;-59
2021/01/12 10:41:39;;;;;;;13.98;2.22;;;6.30;99.90;;;;;;5059149;28;20416;-59
2021/01/12 10:44:05;;;;;;;11.43;2.15;;;6.30;99.90;;;;;;5068253;28;20021;-60
2021/01/12 10:46:30;;;;;;;12.10;1.90;;;6.30;99.90;;;;;;5071736;28;20462;-60
2021/01/12 10:48:56;;;;;;;8.10;2.17;;;6.20;99.90;;;;;;5061511;28;20494;-58
2021/01/12 10:51:22;;;;;;;15.98;3.28;;;6.20;99.90;;;;;;5057297;28;20118;-60
2021/01/12 10:53:47;;;;;;;13.90;2.80;;;6.20;99.90;;;;;;5066351;28;20462;-59
2021/01/12 10:56:16;;;;;;;16.75;3.05;;;6.30;99.90;;;;;;5056527;28;20374;-59
2021/01/12 10:58:42;;;;;;;11.73;3.30;;;6.20;99.90;;;;;;5068509;28;20039;-59
2021/01/12 11:01:10;;;;;;;15.93;3.17;;;6.20;99.90;;;;;;5066307;28;20026;-60
2021/01/12 11:03:37;;;;;;;12.32;2.88;;;6.20;99.90;;;;;;5078408;28;20039;-60
2021/01/12 11:06:06;;;;;;;10.93;2.60;;;6.20;99.90;;;;;;5064916;28;20036;-59
2021/01/12 11:08:32;;;;;;;14.25;2.70;;;6.30;99.90;;;;;;5057961;28;20363;-59
2021/01/12 11:10:58;;;;;;;13.10;1.92;;;6.30;99.90;;;;;;5058539;28;20023;-60
2021/01/12 11:13:24;;;;;;;13.68;2.53;;;6.40;99.90;;;;;;5059901;28;20765;-60
2021/01/12 11:15:50;;;;;;;12.68;2.35;;;6.30;99.90;;;;;;5051219;28;20025;-61
2021/01/12 11:18:15;;;;;;;13.00;2.30;;;6.40;99.90;;;;;;5059693;28;20497;-61
2021/01/12 11:20:41;;;;;;;11.60;2.97;;;6.40;99.90;;;;;;5058526;28;20066;-60
2021/01/12 11:23:07;;;;;;;15.40;1.92;;;6.40;99.90;;;;;;5065049;28;20462;-59
2021/01/12 11:25:33;;;;;;;9.15;2.13;;;6.40;99.90;;;;;;5052433;28;20486;-59
2021/01/12 11:27:59;;;;;;;10.18;2.15;;;6.40;99.90;;;;;;5071257;28;20086;-60
2021/01/12 11:30:25;;;;;;;12.10;2.53;;;6.40;99.90;;;;;;5063912;28;20032;-60
2021/01/12 11:32:52;;;;;;;20.80;3.28;;;6.40;99.90;;;;;;5059871;28;20046;-59
2021/01/12 11:35:18;;;;;;;9.52;2.40;;;6.30;99.90;;;;;;5073030;28;20028;-59
2021/01/12 11:37:45;;;;;;;12.32;2.28;;;6.40;99.90;;;;;;5088545;28;20024;-59
2021/01/12 11:40:11;;;;;;;9.57;2.10;;;6.30;99.90;;;;;;5068630;28;20032;-58
2021/01/12 11:42:37;;;;;;;15.23;2.13;;;6.30;99.90;;;;;;5057790;28;20493;-61
2021/01/12 11:45:03;;;;;;;13.00;2.30;;;6.40;99.90;;;;;;5062247;28;20024;-59
2021/01/12 11:47:29;;;;;;;14.32;2.00;;;6.40;99.90;;;;;;5058399;28;20031;-59
2021/01/12 11:49:55;;;;;;;7.65;2.20;;;6.30;99.90;;;;;;5057545;28;20028;-61
2021/01/12 11:52:20;;;;;;;16.15;2.53;;;6.30;99.90;;;;;;5056501;28;20098;-58
2021/01/12 11:54:46;;;;;;;10.98;1.90;;;6.30;99.90;;;;;;5073874;28;20040;-59
2021/01/12 11:57:13;;;;;;;16.73;1.95;;;6.40;99.90;;;;;;5066538;28;20009;-59
2021/01/12 11:59:39;;;;;;;14.35;2.50;;;6.40;99.90;;;;;;5053852;28;20058;-61
2021/01/12 12:02:04;;;;;;;8.65;2.10;;;6.50;99.90;;;;;;5056462;28;20044;-59
2021/01/12 12:04:31;;;;;;;14.05;1.88;;;6.50;99.90;;;;;;5064962;28;20385;-60
2021/01/12 12:06:58;;;;;;;13.32;2.22;;;6.50;99.90;;;;;;5056635;28;20037;-60
2021/01/12 12:09:24;;;;;;;14.80;2.13;;;6.60;99.90;;;;;;5058325;28;20024;-60
2021/01/12 12:11:50;;;;;;;10.70;2.33;;;6.50;99.90;;;;;;5069331;28;20047;-60
2021/01/12 12:14:17;;;;;;;9.25;2.33;;;6.50;99.90;;;;;;5079665;28;20400;-60
2021/01/12 12:16:44;;;;;;;10.75;2.40;;;6.50;99.90;;;;;;5055324;28;20168;-60
2021/01/12 12:19:11;;;;;;;9.75;2.50;;;6.60;99.90;;;;;;5059343;28;20028;-59
2021/01/12 12:21:53;;;;;;;14.88;2.42;;;6.60;99.90;;;;;;5072309;28;20450;-59
2021/01/12 12:24:21;;;;;;;12.48;2.30;;;6.70;99.90;;;;;;5066441;28;20107;-61
2021/01/12 12:26:48;;;;;;;9.07;1.70;;;6.60;99.90;;;;;;5067485;28;20043;-60
2021/01/12 12:29:14;;;;;;;10.95;1.80;;;6.60;99.90;;;;;;5054409;28;20033;-59
2021/01/12 12:31:40;;;;;;;14.60;2.78;;;6.60;99.90;;;;;;5064549;28;20021;-59
2021/01/12 12:34:06;;;;;;;12.85;2.28;;;6.60;99.90;;;;;;5061020;28;20033;-60
2021/01/12 12:36:32;;;;;;;13.45;2.30;;;6.60;99.90;;;;;;5066257;28;20475;-58
2021/01/12 12:38:58;;;;;;;13.85;2.75;;;6.50;99.90;;;;;;5059659;28;20029;-59
2021/01/12 12:41:24;;;;;;;10.80;2.13;;;6.50;99.90;;;;;;5071955;28;20025;-61
2021/01/12 12:43:50;;;;;;;11.43;2.30;;;6.50;99.90;;;;;;5058652;28;20090;-59
2021/01/12 12:46:18;;;;;;;15.45;2.42;;;6.50;99.90;;;;;;5064354;28;20495;-60
2021/01/12 12:48:45;;;;;;;11.43;2.30;;;6.50;99.90;;;;;;5064298;28;20024;-61
2021/01/12 12:51:12;;;;;;;10.52;2.38;;;6.50;99.90;;;;;;5070131;28;20132;-60
2021/01/12 12:53:38;;;;;;;9.65;2.63;;;6.60;99.90;;;;;;5061154;28;20475;-61
2021/01/12 12:56:08;;;;;;;13.48;2.15;;;6.60;99.90;;;;;;5058001;28;20149;-60
2021/01/12 12:58:34;;;;;;;9.48;2.30;;;6.50;99.90;;;;;;5061385;28;20113;-59